createdAt,value
2023-04-24T00:00:16.608Z,11.60
2023-04-24T00:02:46.003Z,11.60
2023-04-24T00:05:12.822Z,11.60
2023-04-24T00:07:39.412Z,11.70
2023-04-24T00:10:07.520Z,11.60
2023-04-24T00:12:34.228Z,11.50
2023-04-24T00:15:01.666Z,11.50
2023-04-24T00:17:28.333Z,11.50
2023-04-24T00:19:59.384Z,11.50
2023-04-24T00:22:27.001Z,11.40
2023-04-24T00:24:53.986Z,11.40
2023-04-24T00:27:20.842Z,11.40
2023-04-24T00:29:47.980Z,11.40
2023-04-24T00:32:14.999Z,11.40
2023-04-24T00:34:42.366Z,11.30
2023-04-24T00:37:08.980Z,11.40
2023-04-24T00:39:35.606Z,11.40
2023-04-24T00:42:02.828Z,11.50
2023-04-24T00:44:29.503Z,11.50
2023-04-24T00:46:56.281Z,11.50
2023-04-24T00:49:23.325Z,11.50
2023-04-24T00:51:52.062Z,11.50
2023-04-24T00:54:19.254Z,11.50
2023-04-24T00:56:46.553Z,11.40
2023-04-24T00:59:14.102Z,11.40
2023-04-24T01:01:44.609Z,11.40
2023-04-24T01:04:13.080Z,11.40
2023-04-24T01:06:40.849Z,11.30
2023-04-24T01:09:11.404Z,11.40
2023-04-24T01:11:38.774Z,11.40
2023-04-24T01:14:05.448Z,11.40
2023-04-24T01:16:32.151Z,11.40
2023-04-24T01:18:58.859Z,11.50
2023-04-24T01:21:31.085Z,11.50
2023-04-24T01:23:57.850Z,11.40
2023-04-24T01:26:26.369Z,11.40
2023-04-24T01:28:53.783Z,11.50
2023-04-24T01:31:21.096Z,11.50
2023-04-24T01:33:48.756Z,11.40
2023-04-24T01:36:16.359Z,11.30
2023-04-24T01:38:43.060Z,11.40
2023-04-24T01:41:09.720Z,11.40
2023-04-24T01:43:36.480Z,11.30
2023-04-24T01:46:03.187Z,11.30
2023-04-24T01:48:31.149Z,11.30
2023-04-24T01:50:58.398Z,11.30
2023-04-24T01:53:25.005Z,11.20
2023-04-24T01:55:51.626Z,11.20
2023-04-24T01:58:18.282Z,11.20
2023-04-24T02:00:44.904Z,11.20
2023-04-24T02:03:11.737Z,11.10
2023-04-24T02:05:38.559Z,11.20
2023-04-24T02:08:05.274Z,11.20
2023-04-24T02:10:31.995Z,11.20
2023-04-24T02:13:00.561Z,11.10
2023-04-24T02:15:27.273Z,11.00
2023-04-24T02:17:53.941Z,11.00
2023-04-24T02:20:20.600Z,11.00
2023-04-24T02:22:47.204Z,11.00
2023-04-24T02:25:13.944Z,11.00
2023-04-24T02:27:40.641Z,11.00
2023-04-24T02:30:08.440Z,11.00
2023-04-24T02:32:35.106Z,11.00
2023-04-24T02:35:02.107Z,11.00
2023-04-24T02:37:28.730Z,11.10
2023-04-24T02:39:55.499Z,11.10
2023-04-24T02:42:22.152Z,11.00
2023-04-24T02:44:48.787Z,11.00
2023-04-24T02:47:15.383Z,11.00
2023-04-24T02:49:42.967Z,11.00
2023-04-24T02:52:09.942Z,10.90
2023-04-24T02:54:36.580Z,11.00
2023-04-24T02:57:03.532Z,11.00
2023-04-24T02:59:30.299Z,10.90
2023-04-24T03:01:56.921Z,10.70
2023-04-24T03:04:24.090Z,10.70
2023-04-24T03:06:53.715Z,10.80
2023-04-24T03:09:20.402Z,10.70
2023-04-24T03:11:47.055Z,10.50
2023-04-24T03:14:13.733Z,10.50
2023-04-24T03:16:40.688Z,10.50
2023-04-24T03:19:08.105Z,10.40
2023-04-24T03:21:36.628Z,10.40
2023-04-24T03:24:03.309Z,10.30
2023-04-24T03:26:29.916Z,10.20
2023-04-24T03:28:57.312Z,10.20
2023-04-24T03:31:24.458Z,10.10
2023-04-24T03:33:51.974Z,10.20
2023-04-24T03:36:20.152Z,10.20
2023-04-24T03:38:46.824Z,10.20
2023-04-24T03:41:13.421Z,10.10
2023-04-24T03:43:40.208Z,10.20
2023-04-24T03:46:06.849Z,10.10
2023-04-24T03:48:33.444Z,10.20
2023-04-24T03:51:00.025Z,10.20
2023-04-24T03:53:27.447Z,10.30
2023-04-24T03:55:54.314Z,10.30
2023-04-24T03:58:20.906Z,10.30
2023-04-24T04:00:48.929Z,10.40
2023-04-24T04:03:15.879Z,10.40
2023-04-24T04:05:42.778Z,10.50
2023-04-24T04:08:09.388Z,10.50
2023-04-24T04:10:35.964Z,10.50
2023-04-24T04:13:02.643Z,10.50
2023-04-24T04:15:29.471Z,10.60
2023-04-24T04:17:56.133Z,10.60
2023-04-24T04:20:22.807Z,10.60
2023-04-24T04:22:49.486Z,10.60
2023-04-24T04:25:16.132Z,10.60
2023-04-24T04:27:42.897Z,10.60
2023-04-24T04:30:10.776Z,10.60
2023-04-24T04:32:38.205Z,10.70
2023-04-24T04:35:05.264Z,10.60
2023-04-24T04:37:34.192Z,10.70
2023-04-24T04:40:01.421Z,10.60
2023-04-24T04:42:28.446Z,10.70
2023-04-24T04:44:55.112Z,10.60
2023-04-24T04:47:25.756Z,10.70
2023-04-24T04:50:01.323Z,10.70
2023-04-24T04:52:28.210Z,10.70
2023-04-24T04:54:54.775Z,10.60
2023-04-24T04:57:21.481Z,10.50
2023-04-24T04:59:48.235Z,10.60
2023-04-24T05:02:15.026Z,10.70
2023-04-24T05:04:41.959Z,10.60
2023-04-24T05:07:08.776Z,10.60
2023-04-24T05:09:35.386Z,10.60
2023-04-24T05:12:03.191Z,10.60
2023-04-24T05:14:29.932Z,10.60
2023-04-24T05:16:56.588Z,10.70
2023-04-24T05:19:23.332Z,10.70
2023-04-24T05:21:49.936Z,10.70
2023-04-24T05:24:16.545Z,10.80
2023-04-24T05:26:43.180Z,10.80
2023-04-24T05:29:09.875Z,10.90
2023-04-24T05:31:36.591Z,10.80
2023-04-24T05:34:03.209Z,10.80
2023-04-24T05:36:29.923Z,10.90
2023-04-24T05:38:57.219Z,10.90
2023-04-24T05:41:23.840Z,11.00
2023-04-24T05:43:50.675Z,11.00
2023-04-24T05:46:17.457Z,11.00
2023-04-24T05:48:44.136Z,11.00
2023-04-24T05:51:11.128Z,11.10
2023-04-24T05:53:37.712Z,11.10
2023-04-24T05:56:04.435Z,11.10
2023-04-24T05:58:31.244Z,11.10
2023-04-24T06:00:59.432Z,11.10
2023-04-24T06:03:26.280Z,11.20
2023-04-24T06:05:52.939Z,11.20
2023-04-24T06:08:19.747Z,11.30
2023-04-24T06:10:46.639Z,11.30
2023-04-24T06:13:13.247Z,11.40
2023-04-24T06:15:39.895Z,11.40
2023-04-24T06:18:06.547Z,11.40
2023-04-24T06:20:33.264Z,11.30
2023-04-24T06:22:59.901Z,11.30
2023-04-24T06:25:27.827Z,11.30
2023-04-24T06:27:55.366Z,11.40
2023-04-24T06:30:22.281Z,11.40
2023-04-24T06:32:48.905Z,11.30
2023-04-24T06:35:15.598Z,11.30
2023-04-24T06:37:43.458Z,11.40
2023-04-24T06:40:10.735Z,11.50
2023-04-24T06:42:37.685Z,11.50
2023-04-24T06:45:06.012Z,11.60
2023-04-24T06:47:32.749Z,11.60
2023-04-24T06:49:59.558Z,11.70
2023-04-24T06:52:26.335Z,11.80
2023-04-24T06:54:52.958Z,11.90
2023-04-24T06:57:20.636Z,12.00
2023-04-24T06:59:47.545Z,12.00
2023-04-24T07:02:14.303Z,12.00
2023-04-24T07:04:42.048Z,12.00
2023-04-24T07:07:10.480Z,12.10
2023-04-24T07:09:39.711Z,12.00
2023-04-24T07:12:06.816Z,11.80
2023-04-24T07:14:33.437Z,11.90
2023-04-24T07:17:00.015Z,12.00
2023-04-24T07:19:26.586Z,12.00
2023-04-24T07:21:54.547Z,12.00
2023-04-24T07:24:22.574Z,12.10
2023-04-24T07:26:52.804Z,12.10
2023-04-24T07:29:20.754Z,12.30
2023-04-24T07:31:47.739Z,12.30
2023-04-24T07:34:14.435Z,12.20
2023-04-24T07:36:42.318Z,12.20
2023-04-24T07:39:09.389Z,12.20
2023-04-24T07:41:36.030Z,12.20
2023-04-24T07:44:02.826Z,12.10
2023-04-24T07:46:31.326Z,11.90
2023-04-24T07:49:11.653Z,11.90
2023-04-24T07:51:40.423Z,12.00
2023-04-24T07:54:07.042Z,12.10
2023-04-24T07:56:34.303Z,12.20
2023-04-24T07:59:02.084Z,12.20
2023-04-24T08:01:28.805Z,12.30
2023-04-24T08:03:55.855Z,12.30
2023-04-24T08:06:23.001Z,12.20
2023-04-24T08:08:49.719Z,12.20
2023-04-24T08:11:16.290Z,12.30
2023-04-24T08:13:42.931Z,12.30
2023-04-24T08:16:09.823Z,12.30
2023-04-24T08:18:36.962Z,12.30
2023-04-24T08:21:03.840Z,12.30
2023-04-24T08:23:30.670Z,12.30
2023-04-24T08:25:58.268Z,12.40
2023-04-24T08:28:25.358Z,12.40
2023-04-24T08:30:55.432Z,12.40
2023-04-24T08:33:24.064Z,12.30
2023-04-24T08:35:51.067Z,12.40
2023-04-24T08:38:18.033Z,12.30
2023-04-24T08:40:46.981Z,12.30
2023-04-24T08:43:15.020Z,12.30
2023-04-24T08:45:41.711Z,12.40
2023-04-24T08:48:19.702Z,12.50
2023-04-24T08:50:47.151Z,12.60
2023-04-24T08:53:14.789Z,12.60
2023-04-24T08:55:44.293Z,12.70
2023-04-24T08:58:11.699Z,12.70
2023-04-24T09:00:40.442Z,12.70
2023-04-24T09:03:07.554Z,12.80
2023-04-24T09:05:34.610Z,12.80
2023-04-24T09:08:04.756Z,12.90
2023-04-24T09:10:31.628Z,12.90
2023-04-24T09:13:02.231Z,13.20
2023-04-24T09:15:29.144Z,13.20
2023-04-24T09:17:56.460Z,13.30
2023-04-24T09:20:23.087Z,13.40
2023-04-24T09:22:54.334Z,13.50
2023-04-24T09:25:21.268Z,13.50
2023-04-24T09:27:48.181Z,13.30
2023-04-24T09:30:15.497Z,13.30
2023-04-24T09:32:42.711Z,13.30
2023-04-24T09:35:14.370Z,13.30
2023-04-24T09:37:46.695Z,13.30
2023-04-24T09:40:15.626Z,13.30
2023-04-24T09:42:59.841Z,13.20
2023-04-24T09:45:35.734Z,13.10
2023-04-24T09:48:02.701Z,13.10
2023-04-24T09:50:32.909Z,13.10
2023-04-24T09:53:03.058Z,13.10
2023-04-24T09:55:30.054Z,13.10
2023-04-24T09:58:02.158Z,13.20
2023-04-24T10:00:33.520Z,13.20
2023-04-24T10:03:05.450Z,13.20
2023-04-24T10:05:36.264Z,13.20
2023-04-24T10:08:11.054Z,13.40
2023-04-24T10:10:47.424Z,13.50
2023-04-24T10:13:16.650Z,13.70
2023-04-24T10:15:43.651Z,13.80
2023-04-24T10:18:11.580Z,13.90
2023-04-24T10:20:40.492Z,14.00
2023-04-24T10:23:07.338Z,13.80
2023-04-24T10:25:36.887Z,13.60
2023-04-24T10:28:04.797Z,13.50
2023-04-24T10:30:37.255Z,13.60
2023-04-24T10:33:05.972Z,13.60
2023-04-24T10:35:39.504Z,13.60
2023-04-24T10:38:19.468Z,13.50
2023-04-24T10:40:46.093Z,13.60
2023-04-24T10:43:18.428Z,13.50
2023-04-24T10:46:05.566Z,13.50
2023-04-24T10:48:33.387Z,13.30
2023-04-24T10:51:00.089Z,13.10
2023-04-24T10:53:31.494Z,13.20
2023-04-24T10:55:59.858Z,13.40
2023-04-24T10:58:39.211Z,13.40
2023-04-24T11:01:06.238Z,13.60
2023-04-24T11:03:35.399Z,13.60
2023-04-24T11:06:07.016Z,13.80
2023-04-24T11:08:40.590Z,13.80
2023-04-24T11:11:18.726Z,13.90
2023-04-24T11:14:00.488Z,14.10
2023-04-24T11:16:46.516Z,14.00
2023-04-24T11:19:17.195Z,13.90
2023-04-24T11:21:46.637Z,13.80
2023-04-24T11:24:26.087Z,13.70
2023-04-24T11:27:08.181Z,13.90
2023-04-24T11:29:56.732Z,13.90
2023-04-24T11:32:36.748Z,13.90
2023-04-24T11:35:22.344Z,13.90
2023-04-24T11:38:12.499Z,13.90
2023-04-24T11:40:43.016Z,13.90
2023-04-24T11:43:11.298Z,14.00
2023-04-24T11:45:37.922Z,14.00
2023-04-24T11:48:05.058Z,14.10
2023-04-24T11:50:31.996Z,14.10
2023-04-24T11:52:58.868Z,14.10
2023-04-24T11:55:27.877Z,14.10
2023-04-24T11:57:57.820Z,14.20
2023-04-24T12:00:29.830Z,14.00
2023-04-24T12:03:11.155Z,14.10
2023-04-24T12:05:39.508Z,14.10
2023-04-24T12:08:06.498Z,13.80
2023-04-24T12:10:34.369Z,13.70
2023-04-24T12:13:01.347Z,13.70
2023-04-24T12:15:28.729Z,13.70
2023-04-24T12:17:56.519Z,13.70
2023-04-24T12:20:28.929Z,13.80
2023-04-24T12:22:57.599Z,13.80
2023-04-24T12:25:32.768Z,13.80
2023-04-24T12:28:05.896Z,13.90
2023-04-24T12:30:35.013Z,13.90
2023-04-24T12:33:03.203Z,14.00
2023-04-24T12:35:32.962Z,13.90
2023-04-24T12:38:14.086Z,13.80
2023-04-24T12:40:42.476Z,13.90
2023-04-24T12:43:20.520Z,14.00
2023-04-24T12:45:49.294Z,13.90
2023-04-24T12:48:16.106Z,13.90
2023-04-24T12:50:45.932Z,14.10
2023-04-24T12:53:13.816Z,14.10
2023-04-24T12:55:41.003Z,14.20
2023-04-24T12:58:09.090Z,14.20
2023-04-24T13:00:35.889Z,14.40
2023-04-24T13:03:03.179Z,14.50
2023-04-24T13:05:30.906Z,14.50
2023-04-24T13:07:58.749Z,14.60
2023-04-24T13:10:25.442Z,14.70
2023-04-24T13:12:52.030Z,14.70
2023-04-24T13:15:18.724Z,14.50
2023-04-24T13:17:45.600Z,14.50
2023-04-24T13:20:12.311Z,14.40
2023-04-24T13:22:38.960Z,14.10
2023-04-24T13:25:07.203Z,14.20
2023-04-24T13:27:34.061Z,14.40
2023-04-24T13:30:00.704Z,14.60
2023-04-24T13:32:28.674Z,14.50
2023-04-24T13:34:55.370Z,14.50
2023-04-24T13:37:23.178Z,14.60
2023-04-24T13:39:50.115Z,14.70
2023-04-24T13:42:16.761Z,14.80
2023-04-24T13:44:43.403Z,14.70
2023-04-24T13:47:10.009Z,14.70
2023-04-24T13:49:36.629Z,14.70
2023-04-24T13:52:03.353Z,14.80
2023-04-24T13:54:29.960Z,15.00
2023-04-24T13:56:59.603Z,14.90
2023-04-24T13:59:26.456Z,15.10
2023-04-24T14:01:53.274Z,15.10
2023-04-24T14:04:20.155Z,15.20
2023-04-24T14:06:46.811Z,15.30
2023-04-24T14:09:13.817Z,15.30
2023-04-24T14:11:40.640Z,15.30
2023-04-24T14:14:07.308Z,15.30
2023-04-24T14:16:34.155Z,15.30
2023-04-24T14:19:00.830Z,15.50
2023-04-24T14:21:27.484Z,15.60
2023-04-24T14:23:54.129Z,15.60
2023-04-24T14:26:20.960Z,15.50
2023-04-24T14:28:47.553Z,15.30
2023-04-24T14:31:14.339Z,15.20
2023-04-24T14:33:41.012Z,15.30
2023-04-24T14:36:07.860Z,15.30
2023-04-24T14:38:35.541Z,15.30
2023-04-24T14:43:31.956Z,15.10
2023-04-24T14:45:58.560Z,15.00
2023-04-24T14:48:25.889Z,14.90
2023-04-24T14:50:52.578Z,15.00
2023-04-24T14:53:19.635Z,15.10
2023-04-24T14:55:46.297Z,15.30
2023-04-24T14:58:12.981Z,15.30
2023-04-24T15:00:39.760Z,15.40
2023-04-24T15:03:06.776Z,15.40
2023-04-24T15:05:33.779Z,15.40
2023-04-24T15:08:00.691Z,15.50
2023-04-24T15:10:27.340Z,15.50
2023-04-24T15:12:54.191Z,15.40
2023-04-24T15:15:20.915Z,15.30
2023-04-24T15:17:47.625Z,15.30
2023-04-24T15:20:14.321Z,15.20
2023-04-24T15:22:40.920Z,15.20
2023-04-24T15:25:08.209Z,15.10
2023-04-24T15:27:42.302Z,15.10
2023-04-24T15:30:09.972Z,15.00
2023-04-24T15:32:37.092Z,15.00
2023-04-24T15:35:09.251Z,15.00
2023-04-24T15:37:36.916Z,14.90
2023-04-24T15:40:06.252Z,15.30
2023-04-24T15:42:33.053Z,15.30
2023-04-24T15:44:59.727Z,15.20
2023-04-24T15:47:26.912Z,15.00
2023-04-24T15:49:54.568Z,15.00
2023-04-24T15:52:21.878Z,14.90
2023-04-24T15:54:48.575Z,14.80
2023-04-24T15:57:15.405Z,14.90
2023-04-24T15:59:42.587Z,14.80
2023-04-24T16:02:12.388Z,15.00
2023-04-24T16:04:39.436Z,15.10
2023-04-24T16:07:06.339Z,15.00
2023-04-24T16:09:32.929Z,15.10
2023-04-24T16:11:59.648Z,15.00
2023-04-24T16:14:26.873Z,15.10
2023-04-24T16:16:55.395Z,15.10
2023-04-24T16:19:22.175Z,15.20
2023-04-24T16:21:48.874Z,15.10
2023-04-24T16:24:15.509Z,15.20
2023-04-24T16:26:42.206Z,15.20
2023-04-24T16:29:08.890Z,15.20
2023-04-24T16:31:35.605Z,15.20
2023-04-24T16:34:02.203Z,15.10
2023-04-24T16:36:28.995Z,15.20
2023-04-24T16:38:55.925Z,15.30
2023-04-24T16:41:22.582Z,15.20
2023-04-24T16:43:49.285Z,15.00
2023-04-24T16:46:16.115Z,14.90
2023-04-24T16:48:43.045Z,14.90
2023-04-24T16:51:09.692Z,14.90
2023-04-24T16:53:36.389Z,14.80
2023-04-24T16:56:03.858Z,14.80
2023-04-24T16:58:31.246Z,14.70
2023-04-24T17:00:58.430Z,14.60
2023-04-24T17:03:25.428Z,14.60
2023-04-24T17:05:52.177Z,14.70
2023-04-24T17:08:19.432Z,14.70
2023-04-24T17:10:46.123Z,14.70
2023-04-24T17:13:14.354Z,14.70
2023-04-24T17:15:42.135Z,14.60
2023-04-24T17:18:08.901Z,14.50
2023-04-24T17:20:35.691Z,14.50
2023-04-24T17:23:02.418Z,14.40
2023-04-24T17:25:29.760Z,14.50
2023-04-24T17:27:56.523Z,14.50
2023-04-24T17:30:23.207Z,14.60
2023-04-24T17:32:49.874Z,14.60
2023-04-24T17:35:16.623Z,14.60
2023-04-24T17:37:43.668Z,14.60
2023-04-24T17:40:11.498Z,14.70
2023-04-24T17:42:41.219Z,14.60
2023-04-24T17:45:08.675Z,14.60
2023-04-24T17:47:35.685Z,14.60
2023-04-24T17:50:02.783Z,14.50
2023-04-24T17:52:29.409Z,14.50
2023-04-24T17:54:56.087Z,14.40
2023-04-24T17:57:22.715Z,14.40
2023-04-24T17:59:49.538Z,14.30
2023-04-24T18:02:16.590Z,14.20
2023-04-24T18:04:43.840Z,14.20
2023-04-24T18:07:10.734Z,14.10
2023-04-24T18:09:37.426Z,14.00
2023-04-24T18:12:04.494Z,14.00
2023-04-24T18:14:31.459Z,13.90
2023-04-24T18:16:58.495Z,13.90
2023-04-24T18:19:25.341Z,13.90
2023-04-24T18:21:52.009Z,13.80
2023-04-24T18:24:19.579Z,13.70
2023-04-24T18:26:46.189Z,13.70
2023-04-24T18:29:12.980Z,13.60
2023-04-24T18:31:39.739Z,13.60
2023-04-24T18:34:06.468Z,13.60
2023-04-24T18:36:33.176Z,13.60
2023-04-24T18:39:00.002Z,13.60
2023-04-24T18:41:26.620Z,13.50
2023-04-24T18:43:53.280Z,13.50
2023-04-24T18:46:20.103Z,13.50
2023-04-24T18:48:47.063Z,13.50
2023-04-24T18:51:13.955Z,13.50
2023-04-24T18:53:40.761Z,13.40
2023-04-24T18:56:07.491Z,13.40
2023-04-24T18:58:34.242Z,13.30
2023-04-24T19:01:00.896Z,13.30
2023-04-24T19:03:29.772Z,13.20
2023-04-24T19:05:56.517Z,13.20
2023-04-24T19:08:23.125Z,13.20
2023-04-24T19:10:53.478Z,13.10
2023-04-24T19:13:20.318Z,13.10
2023-04-24T19:15:46.941Z,13.00
2023-04-24T19:18:13.777Z,13.00
2023-04-24T19:20:40.392Z,12.90
2023-04-24T19:23:07.404Z,12.80
2023-04-24T19:25:34.196Z,12.90
2023-04-24T19:28:00.885Z,12.90
2023-04-24T19:30:27.468Z,12.90
2023-04-24T19:32:54.260Z,12.90
2023-04-24T19:35:20.993Z,12.90
2023-04-24T19:37:47.703Z,12.80
2023-04-24T19:40:14.447Z,12.70
2023-04-24T19:42:44.300Z,12.70
2023-04-24T19:45:12.773Z,12.60
2023-04-24T19:47:39.778Z,12.60
2023-04-24T19:50:07.504Z,12.60
2023-04-24T19:52:34.307Z,12.60
2023-04-24T19:55:00.991Z,12.60
2023-04-24T19:57:27.720Z,12.60
2023-04-24T19:59:54.368Z,12.60
2023-04-24T20:02:21.438Z,12.60
2023-04-24T20:04:48.481Z,12.60
2023-04-24T20:07:15.621Z,12.40
2023-04-24T20:09:42.238Z,12.40
2023-04-24T20:12:09.673Z,12.40
2023-04-24T20:14:36.551Z,12.30
2023-04-24T20:17:03.257Z,12.40
2023-04-24T20:19:30.115Z,12.30
2023-04-24T20:21:56.817Z,12.30
2023-04-24T20:24:23.460Z,12.20
2023-04-24T20:26:50.252Z,12.20
2023-04-24T20:29:16.880Z,12.20
2023-04-24T20:31:43.634Z,12.10
2023-04-24T20:34:10.340Z,12.10
2023-04-24T20:36:37.194Z,12.10
2023-04-24T20:39:06.536Z,12.10
2023-04-24T20:41:33.679Z,12.10
2023-04-24T20:44:01.110Z,12.10
2023-04-24T20:46:27.740Z,12.00
2023-04-24T20:48:54.333Z,12.20
2023-04-24T20:51:20.983Z,12.10
2023-04-24T20:53:49.410Z,12.00
2023-04-24T20:56:19.249Z,11.90
2023-04-24T20:58:46.774Z,11.90
2023-04-24T21:01:14.656Z,11.90
2023-04-24T21:03:41.726Z,11.90
2023-04-24T21:06:08.852Z,11.80
2023-04-24T21:08:37.583Z,11.70
2023-04-24T21:11:04.791Z,11.80
2023-04-24T21:13:31.614Z,11.70
2023-04-24T21:15:58.359Z,11.70
2023-04-24T21:18:26.089Z,11.80
2023-04-24T21:20:53.557Z,11.80
2023-04-24T21:23:20.352Z,11.90
2023-04-24T21:25:47.438Z,11.90
2023-04-24T21:28:14.429Z,11.90
2023-04-24T21:30:41.313Z,11.90
2023-04-24T21:33:08.014Z,11.90
2023-04-24T21:35:35.237Z,11.90
2023-04-24T21:38:01.840Z,11.80
2023-04-24T21:40:28.998Z,11.80
2023-04-24T21:42:56.209Z,11.80
2023-04-24T21:45:22.921Z,11.70
2023-04-24T21:47:49.695Z,11.80
2023-04-24T21:50:16.454Z,11.70
2023-04-24T21:52:43.057Z,11.70
2023-04-24T21:55:09.759Z,11.70
2023-04-24T21:57:36.446Z,11.80
2023-04-24T22:00:03.469Z,11.80
2023-04-24T22:02:30.221Z,11.70
2023-04-24T22:04:57.391Z,11.70
2023-04-24T22:07:24.225Z,11.70
2023-04-24T22:09:51.842Z,11.70
2023-04-24T22:12:18.472Z,11.70
2023-04-24T22:14:45.147Z,11.70
2023-04-24T22:17:12.206Z,11.60
2023-04-24T22:19:40.378Z,11.60
2023-04-24T22:22:07.232Z,11.60
2023-04-24T22:24:33.831Z,11.70
2023-04-24T22:27:00.417Z,11.70
2023-04-24T22:29:26.988Z,11.70
2023-04-24T22:31:56.568Z,11.60
2023-04-24T22:34:23.468Z,11.60
2023-04-24T22:36:50.089Z,11.70
2023-04-24T22:39:17.515Z,11.60
2023-04-24T22:41:44.250Z,11.60
2023-04-24T22:44:11.312Z,11.60
2023-04-24T22:46:38.060Z,11.60
2023-04-24T22:49:05.105Z,11.40
2023-04-24T22:51:35.291Z,11.40
2023-04-24T22:54:04.356Z,11.50
2023-04-24T22:56:32.164Z,11.40
2023-04-24T22:58:59.178Z,11.40
2023-04-24T23:01:27.382Z,11.40
2023-04-24T23:03:54.536Z,11.40
2023-04-24T23:06:21.744Z,11.40
2023-04-24T23:08:48.418Z,11.40
2023-04-24T23:11:15.302Z,11.40
2023-04-24T23:13:41.943Z,11.30
2023-04-24T23:16:08.612Z,11.30
2023-04-24T23:18:35.276Z,11.40
2023-04-24T23:21:03.188Z,11.40
2023-04-24T23:23:29.822Z,11.40
2023-04-24T23:25:56.944Z,11.40
2023-04-24T23:28:23.570Z,11.40
2023-04-24T23:30:50.327Z,11.30
2023-04-24T23:33:17.055Z,11.40
2023-04-24T23:35:43.622Z,11.40
2023-04-24T23:38:10.759Z,11.40
2023-04-24T23:40:37.407Z,11.40
2023-04-24T23:43:08.078Z,11.40
2023-04-24T23:45:35.639Z,11.30
2023-04-24T23:48:03.953Z,11.40
2023-04-24T23:50:30.632Z,11.40
2023-04-24T23:52:57.322Z,11.40
2023-04-24T23:55:23.905Z,11.40
2023-04-24T23:57:50.687Z,11.40
